Weather reports worldwide

Advertisment
Passo Rolle, Italy (16021): temperature & dewpoint: 15.02.2019 22:00:00 - 21.02.2019 22:00:00 (CET)Passo Rolle, Italy (16021): wind speed: 15.02.2019 22:00:00 - 21.02.2019 22:00:00 (CET)Passo Rolle, Italy (16021): wind direction: 15.02.2019 22:00:00 - 21.02.2019 22:00:00 (CET)Passo Rolle, Italy (16021): visibility: 15.02.2019 22:00:00 - 21.02.2019 22:00:00 (CET)
Date & Time tt [°C] td [°C] ff [km/h] ff [kn] dd vv [km]
21.02.2019 22:00:00 - - - - - -
21.02.2019 21:00:00 - - - - - -
21.02.2019 20:00:00 - - - - - -
21.02.2019 19:00:00 - - - - - -
21.02.2019 18:00:00 - - - - - -
21.02.2019 17:00:00 4,0 -9,0 18 10 WNW 10
21.02.2019 16:00:00 4,0 -9,7 9 5 W 75
21.02.2019 15:00:00 4,0 -9,0 8 4 WNW 10
21.02.2019 14:00:00 4,0 -8,0 8 4 N 10
21.02.2019 13:00:00 3,2 -8,5 11 6 WNW 75
21.02.2019 12:00:00 2,0 -9,0 9 5 W 10
21.02.2019 11:00:00 2,0 -7,0 8 4 NNE 10
21.02.2019 10:00:00 1,2 -7,6 8 4 N 75
21.02.2019 09:00:00 0,0 -8,0 8 4 N 10
21.02.2019 08:00:00 0,0 -7,0 8 4 N 10
21.02.2019 07:00:00 -0,2 -6,6 11 6 NNW 40
21.02.2019 06:00:00 -1,0 -7,0 13 7 NNW 10
21.02.2019 05:00:00 -1,0 -7,0 8 4 NNW 10
21.02.2019 04:00:00 -1,0 -7,4 11 6 NNW 10
21.02.2019 03:00:00 - - - - - -
21.02.2019 02:00:00 - - - - - -
21.02.2019 01:00:00 -0,4 -7,2 8 4 N 10
21.02.2019 00:00:00 - - - - - -
20.02.2019 23:00:00 - - - - - -
20.02.2019 22:00:00 0,8 -7,4 8 4 N 10
20.02.2019 21:00:00 - - - - - -
20.02.2019 20:00:00 - - - - - -
20.02.2019 19:00:00 1,8 -6,0 0 0 N 10
20.02.2019 18:00:00 3,0 -6,0 4 2 E 10
20.02.2019 17:00:00 3,0 -7,0 8 4 E 10
20.02.2019 16:00:00 4,4 -7,4 11 6 ESE 75
20.02.2019 15:00:00 5,0 -7,0 5 3 WSW 10
20.02.2019 14:00:00 4,0 -9,0 15 8 W 10
20.02.2019 13:00:00 3,8 -6,8 8 4 WSW 75
20.02.2019 12:00:00 2,0 -7,0 9 5 NNW 10
20.02.2019 11:00:00 1,0 -8,0 0 0 N 10
20.02.2019 10:00:00 0,4 -8,8 5 3 N 75
20.02.2019 09:00:00 -1,0 -9,0 9 5 N 10
20.02.2019 08:00:00 -1,0 -9,0 8 4 N 10
20.02.2019 07:00:00 -1,0 -9,1 4 2 NNW 30
20.02.2019 06:00:00 -1,0 -9,0 8 4 NNW 10
20.02.2019 05:00:00 -1,0 -9,0 8 4 N 10
20.02.2019 04:00:00 -1,0 -9,1 5 3 NW 10
20.02.2019 03:00:00 - - - - - -
20.02.2019 02:00:00 - - - - - -
20.02.2019 01:00:00 -1,0 -9,1 0 0 N 10
20.02.2019 00:00:00 - - - - - -
19.02.2019 23:00:00 - - - - - -
19.02.2019 22:00:00 -0,2 -8,9 9 5 N 10
19.02.2019 21:00:00 - - - - - -
19.02.2019 20:00:00 - - - - - -
19.02.2019 19:00:00 2,4 -8,6 8 4 N 10
19.02.2019 18:00:00 4,0 -9,0 9 5 NNW 10
19.02.2019 17:00:00 3,0 -10,0 9 5 N 10
19.02.2019 16:00:00 3,6 -12,4 11 6 WNW 75
19.02.2019 15:00:00 4,0 -14,0 8 4 WNW 10
19.02.2019 14:00:00 5,0 -16,0 5 3 NNW 10
19.02.2019 13:00:00 3,6 -17,3 5 3 NW 75
19.02.2019 12:00:00 3,0 -16,0 5 3 NW 10
19.02.2019 11:00:00 2,0 -16,0 0 0 N 10
19.02.2019 10:00:00 1,4 -17,0 4 2 N 75
19.02.2019 09:00:00 0,0 -12,0 0 0 N 10
19.02.2019 08:00:00 - - - - - -
19.02.2019 07:00:00 0,4 -16,9 0 0 N 15
19.02.2019 06:00:00 0,0 -16,0 0 0 N 10
19.02.2019 05:00:00 1,0 -14,0 0 0 N 10
19.02.2019 04:00:00 1,0 -14,6 4 2 N 10
19.02.2019 03:00:00 - - - - - -
19.02.2019 02:00:00 - - - - - -
19.02.2019 01:00:00 0,8 -11,9 5 3 N 10
19.02.2019 00:00:00 - - - - - -
18.02.2019 23:00:00 - - - - - -
18.02.2019 22:00:00 1,0 -12,4 8 4 N 10
18.02.2019 21:00:00 - - - - - -
18.02.2019 20:00:00 - - - - - -
18.02.2019 19:00:00 3,4 -10,3 9 5 ESE 15
18.02.2019 18:00:00 4,0 -12,0 8 4 E 10
18.02.2019 17:00:00 5,0 -16,0 13 7 ESE 10
18.02.2019 16:00:00 4,8 -13,1 13 7 SE 75
18.02.2019 15:00:00 5,0 -12,0 13 7 SE 10
18.02.2019 14:00:00 6,0 -11,0 11 6 ESE 10
18.02.2019 13:00:00 4,2 -19,4 13 7 SE 75
18.02.2019 12:00:00 2,0 -21,0 15 8 ESE 10
18.02.2019 11:00:00 2,0 -21,0 15 8 ESE 10
18.02.2019 10:00:00 1,2 -21,9 11 6 E 75
18.02.2019 09:00:00 2,0 -22,0 0 0 N 10
18.02.2019 08:00:00 1,0 -21,0 0 0 N 10
18.02.2019 07:00:00 0,8 -18,5 0 0 N 50
18.02.2019 06:00:00 1,0 -17,0 4 2 NNW 10
18.02.2019 05:00:00 1,0 -16,0 5 3 NNE 10
18.02.2019 04:00:00 1,0 -15,5 8 4 N 10
18.02.2019 03:00:00 - - - - - -
18.02.2019 02:00:00 - - - - - -
18.02.2019 01:00:00 1,8 -14,8 4 2 NNW 10
18.02.2019 00:00:00 - - - - - -
17.02.2019 23:00:00 - - - - - -
17.02.2019 22:00:00 2,0 -14,6 4 2 NNW 10
17.02.2019 21:00:00 - - - - - -
17.02.2019 20:00:00 - - - - - -
17.02.2019 19:00:00 4,6 -14,3 8 4 N 80
17.02.2019 18:00:00 5,0 -14,0 5 3 N 10
17.02.2019 17:00:00 5,0 -14,0 5 3 E 10
17.02.2019 16:00:00 5,2 -13,7 5 3 ESE 75
17.02.2019 15:00:00 6,0 -13,0 9 5 SE 10
17.02.2019 14:00:00 5,0 -14,0 11 6 SE 10
17.02.2019 13:00:00 4,8 -15,1 11 6 SE 75
17.02.2019 12:00:00 4,0 -17,0 11 6 SE 10
17.02.2019 11:00:00 2,0 -18,0 8 4 ESE 10
17.02.2019 10:00:00 1,0 -18,3 2 1 NNE 75
17.02.2019 09:00:00 1,0 -19,0 4 2 NE 10
17.02.2019 08:00:00 2,0 -19,0 5 3 NNE 10
17.02.2019 07:00:00 2,0 -18,0 2 1 W 50
17.02.2019 06:00:00 2,0 -18,0 4 2 WNW 10
17.02.2019 05:00:00 2,0 -18,0 4 2 ESE 10
17.02.2019 04:00:00 1,6 -17,8 4 2 SE 10
17.02.2019 03:00:00 - - - - - -
17.02.2019 02:00:00 - - - - - -
17.02.2019 01:00:00 1,8 -16,6 0 0 N 10
17.02.2019 00:00:00 - - - - - -
16.02.2019 23:00:00 - - - - - -
16.02.2019 22:00:00 2,6 -16,0 4 2 NNW 10
16.02.2019 21:00:00 - - - - - -
16.02.2019 20:00:00 - - - - - -
16.02.2019 19:00:00 3,6 -15,6 8 4 N 10
16.02.2019 18:00:00 5,0 -14,0 5 3 N 10
16.02.2019 17:00:00 6,0 -15,0 9 5 N 10
16.02.2019 16:00:00 6,2 -15,7 5 3 NNW 75
16.02.2019 15:00:00 7,0 -14,0 5 3 N 10
16.02.2019 14:00:00 6,0 -15,0 4 2 NW 10
16.02.2019 13:00:00 5,2 -15,3 2 1 E 80
16.02.2019 12:00:00 5,0 -18,0 2 1 N 10
16.02.2019 11:00:00 3,0 -17,0 2 1 NW 10
16.02.2019 10:00:00 1,8 -17,7 5 3 NNE 75
16.02.2019 09:00:00 1,0 -18,0 9 5 N 10
16.02.2019 08:00:00 1,0 -17,0 8 4 N 10
16.02.2019 07:00:00 0,8 -19,1 9 5 NNW 30
16.02.2019 06:00:00 1,0 -19,0 4 2 N 10
16.02.2019 05:00:00 2,0 -18,0 5 3 E 10
16.02.2019 04:00:00 1,2 -18,2 8 4 ESE 10
16.02.2019 03:00:00 - - - - - -
16.02.2019 02:00:00 - - - - - -
16.02.2019 01:00:00 1,2 -14,5 5 3 E 10
16.02.2019 00:00:00 - - - - - -
15.02.2019 23:00:00 - - - - - -
15.02.2019 22:00:00 0,8 -12,6 9 5 N 50

tt = temperature
td = dewpoint
ff = wind speed
dd = wind direction
vv = visibility

Next stations